createdAt,value
2018-11-14T00:00:14.838Z,4.77
2018-11-14T00:02:43.293Z,5.00
2018-11-14T00:05:10.751Z,4.50
2018-11-14T00:07:38.335Z,4.63
2018-11-14T00:10:06.634Z,4.50
2018-11-14T00:12:34.063Z,5.00
2018-11-14T00:15:04.074Z,5.10
2018-11-14T00:17:31.481Z,4.60
2018-11-14T00:19:58.970Z,5.00
2018-11-14T00:22:26.487Z,4.63
2018-11-14T00:24:54.135Z,4.50
2018-11-14T00:27:22.213Z,5.17
2018-11-14T00:29:49.638Z,4.90
2018-11-14T00:32:17.181Z,4.80
2018-11-14T00:34:44.643Z,4.87
2018-11-14T00:37:12.126Z,4.63
2018-11-14T00:39:41.749Z,4.90
2018-11-14T00:42:09.330Z,4.97
2018-11-14T00:44:36.857Z,5.27
2018-11-14T00:47:04.405Z,4.87
2018-11-14T00:49:32.003Z,4.97
2018-11-14T00:52:00.381Z,4.97
2018-11-14T00:54:27.938Z,4.93
2018-11-14T00:56:55.507Z,4.47
2018-11-14T00:59:23.031Z,4.67
2018-11-14T01:01:50.555Z,4.63
2018-11-14T01:04:20.483Z,4.90
2018-11-14T01:06:48.979Z,4.63
2018-11-14T01:09:16.599Z,4.60
2018-11-14T01:11:44.215Z,4.97
2018-11-14T01:14:11.694Z,4.50
2018-11-14T01:16:40.142Z,4.60
2018-11-14T01:19:09.008Z,4.80
2018-11-14T01:21:36.681Z,4.60
2018-11-14T01:24:04.185Z,4.43
2018-11-14T01:26:31.743Z,4.67
2018-11-14T01:29:01.222Z,4.53
2018-11-14T01:31:28.696Z,4.90
2018-11-14T01:33:56.228Z,4.80
2018-11-14T01:36:23.805Z,4.27
2018-11-14T01:38:51.294Z,4.80
2018-11-14T01:41:19.730Z,4.93
2018-11-14T01:43:47.559Z,4.57
2018-11-14T01:46:14.989Z,4.80
2018-11-14T01:48:42.453Z,4.87
2018-11-14T01:51:09.986Z,4.40
2018-11-14T02:00:25.001Z,4.03
2018-11-14T02:02:52.568Z,4.50
2018-11-14T02:05:20.970Z,4.20
2018-11-14T02:07:48.753Z,4.23
2018-11-14T02:10:18.203Z,3.93
2018-11-14T02:12:45.961Z,4.50
2018-11-14T02:15:16.823Z,4.70
2018-11-14T02:17:46.439Z,4.13
2018-11-14T02:20:14.055Z,4.87
2018-11-14T02:22:42.708Z,4.47
2018-11-14T02:25:11.041Z,4.27
2018-11-14T02:27:38.557Z,4.37
2018-11-14T02:30:09.600Z,4.10
2018-11-14T02:32:37.025Z,4.10
2018-11-14T02:35:05.066Z,3.93
2018-11-14T02:37:32.632Z,4.33
2018-11-14T02:40:00.045Z,4.07
2018-11-14T02:42:29.570Z,4.03
2018-11-14T02:44:57.424Z,4.10
2018-11-14T02:47:24.844Z,4.40
2018-11-14T02:49:52.438Z,4.03
2018-11-14T02:52:19.929Z,4.17
2018-11-14T02:54:48.531Z,4.60
2018-11-14T02:57:15.955Z,4.17
2018-11-14T02:59:44.386Z,4.20
2018-11-14T03:02:11.877Z,4.17
2018-11-14T03:04:39.389Z,4.33
2018-11-14T03:07:09.242Z,4.33
2018-11-14T03:09:36.700Z,4.70
2018-11-14T03:12:04.424Z,3.87
2018-11-14T03:14:32.075Z,4.07
2018-11-14T03:16:59.527Z,4.40
2018-11-14T03:19:27.946Z,4.53
2018-11-14T03:21:55.412Z,4.30
2018-11-14T03:24:22.830Z,4.20
2018-11-14T03:26:50.294Z,4.13
2018-11-14T03:29:17.873Z,4.00
2018-11-14T03:31:47.085Z,4.10
2018-11-14T03:34:14.686Z,4.47
2018-11-14T03:36:43.213Z,3.77
2018-11-14T03:39:10.717Z,4.40
2018-11-14T03:41:38.172Z,4.03
2018-11-14T03:44:06.734Z,4.37
2018-11-14T03:46:34.343Z,4.50
2018-11-14T03:49:01.917Z,4.57
2018-11-14T03:51:29.501Z,4.00
2018-11-14T03:53:56.971Z,4.10
2018-11-14T03:56:25.758Z,4.00
2018-11-14T03:58:54.645Z,4.80
2018-11-14T04:01:22.102Z,4.10
2018-11-14T04:03:49.567Z,4.93
2018-11-14T04:06:17.108Z,4.63
2018-11-14T04:08:45.657Z,4.97
2018-11-14T04:11:13.267Z,4.37
2018-11-14T04:13:40.835Z,4.50
2018-11-14T04:16:08.419Z,4.20
2018-11-14T04:18:35.903Z,4.40
2018-11-14T04:21:04.996Z,4.40
2018-11-14T04:23:32.457Z,4.63
2018-11-14T04:25:59.907Z,5.00
2018-11-14T04:28:27.427Z,4.77
2018-11-14T04:30:54.979Z,4.70
2018-11-14T04:33:23.402Z,5.10
2018-11-14T04:35:52.201Z,4.60
2018-11-14T04:38:19.642Z,4.60
2018-11-14T04:40:47.220Z,4.53
2018-11-14T04:43:14.685Z,4.27
2018-11-14T04:45:43.698Z,4.30
2018-11-14T04:48:11.568Z,4.40
2018-11-14T04:50:39.009Z,4.40
2018-11-14T04:53:07.390Z,4.57
2018-11-14T04:55:34.870Z,4.50
2018-11-14T04:58:04.301Z,4.57
2018-11-14T05:00:31.822Z,4.40
2018-11-14T05:02:59.260Z,4.43
2018-11-14T05:05:26.831Z,4.40
2018-11-14T05:07:54.276Z,4.40
2018-11-14T05:10:24.924Z,5.20
2018-11-14T05:12:52.704Z,4.97
2018-11-14T05:15:21.426Z,4.50
2018-11-14T05:17:49.496Z,4.40
2018-11-14T05:20:18.085Z,4.80
2018-11-14T05:22:47.694Z,5.00
2018-11-14T05:25:15.255Z,4.87
2018-11-14T05:27:42.960Z,5.47
2018-11-14T05:30:12.733Z,5.00
2018-11-14T05:32:40.600Z,5.53
2018-11-14T05:35:11.892Z,4.70
2018-11-14T05:37:39.920Z,5.27
2018-11-14T05:40:11.824Z,4.77
2018-11-14T05:42:39.954Z,4.93
2018-11-14T05:45:11.698Z,5.00
2018-11-14T05:47:39.790Z,5.10
2018-11-14T05:50:11.158Z,5.40
2018-11-14T05:52:38.805Z,5.00
2018-11-14T05:55:06.566Z,5.37
2018-11-14T05:57:36.077Z,5.17
2018-11-14T06:00:05.293Z,5.23
2018-11-14T06:02:32.886Z,5.73
2018-11-14T06:05:00.473Z,5.60
2018-11-14T06:07:27.919Z,5.47
2018-11-14T06:09:56.465Z,5.60
2018-11-14T06:12:24.209Z,5.10
2018-11-14T06:14:51.711Z,5.57
2018-11-14T06:17:19.164Z,5.13
2018-11-14T06:19:46.690Z,5.30
2018-11-14T06:22:16.066Z,5.13
2018-11-14T06:24:43.553Z,5.20
2018-11-14T06:27:11.162Z,5.10
2018-11-14T06:29:38.977Z,5.40
2018-11-14T06:32:06.652Z,5.13
2018-11-14T06:34:36.156Z,5.20
2018-11-14T06:37:03.675Z,4.80
2018-11-14T06:39:31.226Z,5.80
2018-11-14T06:41:58.811Z,5.80
2018-11-14T06:44:26.290Z,6.13
2018-11-14T06:46:55.338Z,6.00
2018-11-14T06:49:22.923Z,5.77
2018-11-14T06:51:50.760Z,5.90
2018-11-14T06:54:18.283Z,5.77
2018-11-14T06:56:45.889Z,6.17
2018-11-14T06:59:14.340Z,6.33
2018-11-14T07:01:41.817Z,6.60
2018-11-14T07:04:09.471Z,6.20
2018-11-14T07:06:36.930Z,6.13
2018-11-14T07:09:07.869Z,6.00
2018-11-14T07:11:37.275Z,7.10
2018-11-14T07:14:04.927Z,6.03
2018-11-14T07:16:32.394Z,6.10
2018-11-14T07:18:59.984Z,6.30
2018-11-14T07:21:27.464Z,6.33
2018-11-14T07:23:56.133Z,7.10
2018-11-14T07:26:24.764Z,6.63
2018-11-14T07:28:52.259Z,6.80
2018-11-14T07:31:19.722Z,6.40
2018-11-14T07:33:47.394Z,6.67
2018-11-14T07:36:16.973Z,6.70
2018-11-14T07:38:45.659Z,7.00
2018-11-14T07:41:16.549Z,6.90
2018-11-14T07:43:44.452Z,7.27
2018-11-14T07:46:12.442Z,7.77
2018-11-14T07:48:41.318Z,7.63
2018-11-14T07:51:08.916Z,7.40
2018-11-14T07:53:38.287Z,8.73
2018-11-14T07:56:05.884Z,8.40
2018-11-14T07:58:33.371Z,8.53
2018-11-14T08:01:01.899Z,8.47
2018-11-14T08:03:30.368Z,9.37
2018-11-14T08:05:58.072Z,9.10
2018-11-14T08:08:25.656Z,9.57
2018-11-14T08:10:53.309Z,9.40
2018-11-14T08:13:27.465Z,10.13
2018-11-14T08:15:56.659Z,11.70
2018-11-14T08:18:24.462Z,12.90
2018-11-14T08:20:51.932Z,12.57
2018-11-14T08:23:19.475Z,14.00
2018-11-14T08:25:48.046Z,13.43
2018-11-14T08:28:16.284Z,13.13
2018-11-14T08:30:44.463Z,12.97
2018-11-14T08:33:11.899Z,13.10
2018-11-14T08:35:39.470Z,13.00
2018-11-14T08:38:09.883Z,13.80
2018-11-14T08:40:37.444Z,13.03
2018-11-14T08:43:05.521Z,13.50
2018-11-14T08:45:33.049Z,13.87
2018-11-14T08:48:00.501Z,13.40
2018-11-14T08:50:29.137Z,13.50
2018-11-14T08:52:56.745Z,13.17
2018-11-14T08:55:25.389Z,13.67
2018-11-14T08:57:52.876Z,13.73
2018-11-14T09:00:25.229Z,13.90
2018-11-14T09:02:55.699Z,13.90
2018-11-14T09:05:25.345Z,12.97
2018-11-14T09:07:53.013Z,13.30
2018-11-14T09:10:21.851Z,13.10
2018-11-14T09:12:49.639Z,12.20
2018-11-14T09:15:21.227Z,13.13
2018-11-14T09:17:48.875Z,11.63
2018-11-14T09:20:17.838Z,11.60
2018-11-14T09:22:45.578Z,11.70
2018-11-14T09:25:14.804Z,12.07
2018-11-14T09:27:44.185Z,11.40
2018-11-14T09:30:15.147Z,11.50
2018-11-14T09:32:42.648Z,11.40
2018-11-14T09:35:11.875Z,12.20
2018-11-14T09:37:39.878Z,10.70
2018-11-14T09:40:11.317Z,10.73
2018-11-14T09:42:39.053Z,10.83
2018-11-14T09:45:10.303Z,10.33
2018-11-14T09:47:37.882Z,10.90
2018-11-14T09:50:08.994Z,10.63
2018-11-14T09:52:37.030Z,10.83
2018-11-14T09:55:05.950Z,10.17
2018-11-14T09:57:34.541Z,10.40
2018-11-14T10:00:02.101Z,10.17
2018-11-14T10:02:30.485Z,10.57
2018-11-14T10:04:57.981Z,10.10
2018-11-14T10:07:26.320Z,11.67
2018-11-14T10:09:53.773Z,11.93
2018-11-14T10:12:21.429Z,11.93
2018-11-14T10:14:50.665Z,10.63
2018-11-14T10:17:18.310Z,10.97
2018-11-14T10:19:46.272Z,11.37
2018-11-14T10:22:14.147Z,11.93
2018-11-14T10:24:41.852Z,10.90
2018-11-14T10:27:09.865Z,10.90
2018-11-14T10:29:37.417Z,10.93
2018-11-14T10:32:05.455Z,10.70
2018-11-14T10:34:32.976Z,10.43
2018-11-14T10:37:03.891Z,9.97
2018-11-14T10:39:33.705Z,9.60
2018-11-14T10:42:01.358Z,9.93
2018-11-14T10:44:30.298Z,10.20
2018-11-14T10:46:59.604Z,10.30
2018-11-14T10:49:29.022Z,9.80
2018-11-14T10:51:57.559Z,10.07
2018-11-14T10:54:25.341Z,9.43
2018-11-14T10:56:53.402Z,9.17
2018-11-14T10:59:22.642Z,8.90
2018-11-14T11:01:55.793Z,8.70
2018-11-14T11:04:30.372Z,8.00
2018-11-14T11:07:03.970Z,7.67
2018-11-14T11:09:42.271Z,8.20
2018-11-14T11:12:15.457Z,8.40
2018-11-14T11:14:49.671Z,8.50
2018-11-14T11:17:21.747Z,8.47
2018-11-14T11:19:59.245Z,8.23
2018-11-14T11:22:34.451Z,7.80
2018-11-14T11:25:10.985Z,6.80
2018-11-14T11:27:48.332Z,6.53
2018-11-14T11:30:24.777Z,6.60
2018-11-14T11:32:58.298Z,7.07
2018-11-14T11:38:06.705Z,7.97
2018-11-14T11:40:41.081Z,6.90
2018-11-14T11:43:10.840Z,7.10
2018-11-14T11:45:40.581Z,6.97
2018-11-14T11:48:08.711Z,6.40
2018-11-14T11:50:41.254Z,5.80
2018-11-14T11:53:15.480Z,6.47
2018-11-14T11:55:43.979Z,5.93
2018-11-14T11:58:13.435Z,5.87
2018-11-14T12:00:41.936Z,5.57
2018-11-14T12:03:09.428Z,5.20
2018-11-14T12:05:37.249Z,5.50
2018-11-14T12:08:11.120Z,5.13
2018-11-14T12:10:39.258Z,5.10
2018-11-14T12:13:06.947Z,4.73
2018-11-14T12:15:34.536Z,5.00
2018-11-14T12:18:03.423Z,4.40
2018-11-14T12:20:33.338Z,4.17
2018-11-14T12:23:01.430Z,4.23
2018-11-14T12:25:29.206Z,4.20
2018-11-14T12:27:56.846Z,4.00
2018-11-14T12:30:24.627Z,4.10
2018-11-14T12:32:53.097Z,3.73
2018-11-14T12:35:21.524Z,4.03
2018-11-14T12:37:49.898Z,3.90
2018-11-14T12:40:17.868Z,3.83
2018-11-14T12:42:45.521Z,4.33
2018-11-14T12:45:15.667Z,3.83
2018-11-14T12:47:43.869Z,4.40
2018-11-14T12:50:12.554Z,4.10
2018-11-14T12:52:40.430Z,4.10
2018-11-14T12:55:11.559Z,4.37
2018-11-14T12:57:39.691Z,4.43
2018-11-14T13:00:09.544Z,4.33
2018-11-14T13:02:38.033Z,4.60
2018-11-14T13:05:06.597Z,4.20
2018-11-14T13:07:34.158Z,4.20
2018-11-14T13:10:02.172Z,3.83
2018-11-14T13:12:30.639Z,3.80
2018-11-14T13:14:58.124Z,3.80
2018-11-14T13:17:27.499Z,3.93
2018-11-14T13:19:55.530Z,3.83
2018-11-14T13:22:24.264Z,4.10
2018-11-14T13:24:52.694Z,4.10
2018-11-14T13:27:20.517Z,4.00
2018-11-14T13:29:48.496Z,3.90
2018-11-14T13:32:16.269Z,3.77
2018-11-14T13:34:44.546Z,4.00
2018-11-14T13:37:12.762Z,3.90
2018-11-14T13:39:40.488Z,3.83
2018-11-14T13:42:08.369Z,3.80
2018-11-14T13:44:35.960Z,4.00
2018-11-14T13:47:05.104Z,3.70
2018-11-14T13:49:33.193Z,3.50
2018-11-14T13:52:00.497Z,3.97
2018-11-14T13:54:28.519Z,3.43
2018-11-14T13:56:56.255Z,3.60
2018-11-14T13:59:24.343Z,3.40
2018-11-14T14:01:52.553Z,4.20
2018-11-14T14:04:21.791Z,3.90
2018-11-14T14:06:49.308Z,4.00
2018-11-14T14:09:17.117Z,4.23
2018-11-14T14:11:45.149Z,4.33
2018-11-14T14:14:14.675Z,3.57
2018-11-14T14:16:43.256Z,3.77
2018-11-14T14:19:11.052Z,3.90
2018-11-14T14:21:39.053Z,3.90
2018-11-14T14:24:07.800Z,3.93
2018-11-14T14:26:36.842Z,3.80
2018-11-14T14:29:04.677Z,3.77
2018-11-14T14:31:32.475Z,3.77
2018-11-14T14:34:00.149Z,4.13
2018-11-14T14:36:28.344Z,3.60
2018-11-14T14:38:57.939Z,3.77
2018-11-14T14:41:25.582Z,3.70
2018-11-14T14:43:53.224Z,3.80
2018-11-14T14:46:20.868Z,3.80
2018-11-14T14:48:49.451Z,3.77
2018-11-14T14:51:17.439Z,3.73
2018-11-14T14:53:45.173Z,4.20
2018-11-14T14:56:13.100Z,3.67
2018-11-14T15:12:11.654Z,3.70
2018-11-14T15:14:39.395Z,3.43
2018-11-14T15:17:06.958Z,3.50
2018-11-14T15:19:36.221Z,3.00
2018-11-14T15:22:04.595Z,2.97
2018-11-14T15:24:32.695Z,3.20
2018-11-14T15:27:00.408Z,3.47
2018-11-14T15:29:27.980Z,3.03
2018-11-14T15:31:55.638Z,3.27
2018-11-14T15:37:30.307Z,2.97
2018-11-14T15:39:57.962Z,3.00
2018-11-14T15:42:25.489Z,3.50
2018-11-14T15:44:54.276Z,3.20
2018-11-14T15:47:21.973Z,3.07
2018-11-14T15:49:49.577Z,3.00
2018-11-14T15:52:17.157Z,3.27
2018-11-14T15:54:45.835Z,2.97
2018-11-14T15:57:14.468Z,2.90
2018-11-14T15:59:42.114Z,2.60
2018-11-14T16:02:09.912Z,2.80
2018-11-14T16:04:37.558Z,2.93
2018-11-14T16:07:05.389Z,2.50
2018-11-14T16:09:35.053Z,2.50
2018-11-14T16:12:02.792Z,2.53
2018-11-14T16:14:32.128Z,2.80
2018-11-14T16:16:59.780Z,2.70
2018-11-14T16:19:27.421Z,3.60
2018-11-14T16:21:56.113Z,2.83
2018-11-14T16:24:23.978Z,2.83
2018-11-14T16:26:51.484Z,2.67
2018-11-14T16:29:20.481Z,2.90
2018-11-14T16:31:49.715Z,2.90
2018-11-14T16:34:18.693Z,3.00
2018-11-14T16:36:46.341Z,2.93
2018-11-14T16:39:14.023Z,3.40
2018-11-14T16:41:41.620Z,3.43
2018-11-14T16:44:09.638Z,3.53
2018-11-14T16:46:39.233Z,3.67
2018-11-14T16:49:06.866Z,3.93
2018-11-14T16:51:35.290Z,3.70
2018-11-14T16:54:02.955Z,4.00
2018-11-14T16:56:30.486Z,4.23
2018-11-14T16:59:01.565Z,3.70
2018-11-14T17:01:29.325Z,3.90
2018-11-14T17:03:56.869Z,4.27
2018-11-14T17:06:24.500Z,4.70
2018-11-14T17:08:52.122Z,4.50
2018-11-14T17:11:20.941Z,4.20
2018-11-14T17:13:48.498Z,4.27
2018-11-14T17:16:18.277Z,4.90
2018-11-14T17:18:45.941Z,4.77
2018-11-14T17:21:13.500Z,4.57
2018-11-14T17:23:42.041Z,5.67
2018-11-14T17:26:09.827Z,4.43
2018-11-14T17:28:37.469Z,4.90
2018-11-14T17:31:05.738Z,4.57
2018-11-14T17:33:33.845Z,4.67
2018-11-14T17:36:03.940Z,4.63
2018-11-14T17:38:32.284Z,4.83
2018-11-14T17:41:02.858Z,4.63
2018-11-14T17:43:30.623Z,5.30
2018-11-14T17:47:27.884Z,5.03
2018-11-14T17:49:56.742Z,5.23
2018-11-14T17:52:24.366Z,5.93
2018-11-14T17:54:53.148Z,6.27
2018-11-14T17:57:20.788Z,7.77
2018-11-14T17:59:48.397Z,6.80
2018-11-14T18:02:17.539Z,6.00
2018-11-14T18:04:45.210Z,6.23
2018-11-14T18:07:12.889Z,5.60
2018-11-14T18:09:40.542Z,5.10
2018-11-14T18:12:08.233Z,5.57
2018-11-14T18:14:37.065Z,5.37
2018-11-14T18:17:06.449Z,5.50
2018-11-14T18:19:34.005Z,5.30
2018-11-14T18:22:01.728Z,6.00
2018-11-14T18:24:29.802Z,5.80
2018-11-14T18:26:59.289Z,5.97
2018-11-14T18:29:27.368Z,6.70
2018-11-14T18:31:55.180Z,6.33
2018-11-14T18:34:22.749Z,6.47
2018-11-14T18:36:50.245Z,6.43
2018-11-14T18:39:18.761Z,6.93
2018-11-14T18:41:46.268Z,7.10
2018-11-14T18:44:13.793Z,7.33
2018-11-14T18:46:42.298Z,8.27
2018-11-14T18:49:10.002Z,7.60
2018-11-14T18:51:40.758Z,7.33
2018-11-14T18:54:09.996Z,7.83
2018-11-14T18:56:38.061Z,7.30
2018-11-14T18:59:05.974Z,7.63
2018-11-14T19:01:33.819Z,8.00
2018-11-14T19:04:02.947Z,7.67
2018-11-14T19:06:30.795Z,8.07
2018-11-14T19:08:58.795Z,8.00
2018-11-14T19:11:26.611Z,8.60
2018-11-14T19:13:54.456Z,8.33
2018-11-14T19:16:25.199Z,8.50
2018-11-14T19:18:53.095Z,8.80
2018-11-14T19:21:20.860Z,9.20
2018-11-14T19:23:48.697Z,9.13
2018-11-14T19:26:16.410Z,9.97
2018-11-14T19:28:44.887Z,9.77
2018-11-14T19:31:12.608Z,9.53
2018-11-14T19:33:40.464Z,9.90
2018-11-14T19:36:08.132Z,9.83
2018-11-14T19:38:35.794Z,9.80
2018-11-14T19:41:05.353Z,10.13
2018-11-14T19:45:02.509Z,9.80
2018-11-14T19:47:30.167Z,10.57
2018-11-14T19:49:58.061Z,10.70
2018-11-14T19:52:26.964Z,10.60
2018-11-14T19:54:54.872Z,10.60
2018-11-14T19:57:22.496Z,10.27
2018-11-14T19:59:50.949Z,9.60
2018-11-14T20:02:18.663Z,10.30
2018-11-14T20:04:48.932Z,11.07
2018-11-14T20:07:17.128Z,9.80
2018-11-14T20:09:44.829Z,10.83
2018-11-14T20:12:12.601Z,9.50
2018-11-14T20:14:40.300Z,10.10
2018-11-14T20:17:08.883Z,9.33
2018-11-14T20:19:41.863Z,9.60
2018-11-14T20:22:11.111Z,9.43
2018-11-14T20:24:38.847Z,9.80
2018-11-14T20:27:07.127Z,9.53
2018-11-14T20:29:36.546Z,9.97
2018-11-14T20:32:04.366Z,10.23
2018-11-14T20:34:32.398Z,10.97
2018-11-14T20:37:00.002Z,9.97
2018-11-14T20:39:27.677Z,10.70
2018-11-14T20:41:56.169Z,10.87
2018-11-14T20:44:23.724Z,11.13
2018-11-14T20:46:51.189Z,11.53
2018-11-14T20:49:21.024Z,11.70
2018-11-14T20:51:48.473Z,12.30
2018-11-14T20:54:16.654Z,12.60
2018-11-14T20:56:44.989Z,12.37
2018-11-14T20:59:12.519Z,12.87
2018-11-14T21:01:40.404Z,12.40
2018-11-14T21:04:08.320Z,14.10
2018-11-14T21:06:37.637Z,13.13
2018-11-14T21:09:07.878Z,13.20
2018-11-14T21:11:39.742Z,13.43
2018-11-14T21:14:14.884Z,13.23
2018-11-14T21:16:42.974Z,13.93
2018-11-14T21:19:10.494Z,13.97
2018-11-14T21:21:38.869Z,13.87
2018-11-14T21:24:06.581Z,14.73
2018-11-14T21:26:35.230Z,13.93
2018-11-14T21:29:05.613Z,13.87
2018-11-14T21:31:34.457Z,14.20
2018-11-14T21:34:02.202Z,13.70
2018-11-14T21:36:29.731Z,14.87
2018-11-14T21:38:57.759Z,15.30
2018-11-14T21:41:26.520Z,14.93
2018-11-14T21:43:54.726Z,15.07
2018-11-14T21:46:22.590Z,15.30
2018-11-14T21:48:50.254Z,14.53
2018-11-14T21:51:18.155Z,15.07
2018-11-14T21:53:47.139Z,15.77
2018-11-14T21:56:14.829Z,15.63
2018-11-14T21:58:42.561Z,16.27
2018-11-14T22:01:10.322Z,16.30
2018-11-14T22:03:38.526Z,16.53
2018-11-14T22:06:06.843Z,16.23
2018-11-14T22:08:34.571Z,16.60
2018-11-14T22:11:02.418Z,16.43
2018-11-14T22:13:30.160Z,16.27
2018-11-14T22:15:58.390Z,16.07
2018-11-14T22:18:27.113Z,16.83
2018-11-14T22:20:54.952Z,15.90
2018-11-14T22:23:23.015Z,17.23
2018-11-14T22:25:50.856Z,16.30
2018-11-14T22:28:19.044Z,17.13
2018-11-14T22:30:47.568Z,17.10
2018-11-14T22:33:15.279Z,17.60
2018-11-14T22:35:43.051Z,17.93
2018-11-14T22:38:11.007Z,17.13
2018-11-14T22:40:39.155Z,17.57
2018-11-14T22:43:08.634Z,17.70
2018-11-14T22:45:36.590Z,17.43
2018-11-14T22:48:05.415Z,17.07
2018-11-14T22:50:33.250Z,17.57
2018-11-14T22:53:02.842Z,16.47
2018-11-14T22:55:31.128Z,16.63
2018-11-14T22:57:58.857Z,18.23
2018-11-14T23:00:29.104Z,17.10
2018-11-14T23:02:58.028Z,16.87
2018-11-14T23:05:26.276Z,15.90
2018-11-14T23:07:57.065Z,17.57
2018-11-14T23:10:25.240Z,17.27
2018-11-14T23:12:53.031Z,17.53
2018-11-14T23:15:22.164Z,16.70
2018-11-14T23:17:50.370Z,16.20
2018-11-14T23:20:18.553Z,17.80
2018-11-14T23:22:47.160Z,17.43
2018-11-14T23:25:15.571Z,16.70
2018-11-14T23:27:44.346Z,16.80
2018-11-14T23:30:13.258Z,16.13
2018-11-14T23:32:42.764Z,15.93
2018-11-14T23:35:16.065Z,15.80
2018-11-14T23:37:44.857Z,17.80
2018-11-14T23:40:12.354Z,16.57
2018-11-14T23:42:40.305Z,17.10
2018-11-14T23:45:12.146Z,16.90
2018-11-14T23:47:39.886Z,17.17
2018-11-14T23:50:10.971Z,17.37
2018-11-14T23:52:38.445Z,16.93
2018-11-14T23:55:06.842Z,17.67
2018-11-14T23:57:34.435Z,17.40
